Newport, ME (04953)

7:37 PM EDT on June 27, 2017 (GMT -0400)
Downtown Newport | | Change Station

Elev 227 ft 44.84 °N, 69.28 °W | Updated 2 seconds ago

Thunderstorm
Thunderstorm
60.9 °F
Feels Like 60.9 °F
N
1.0
Wind Variable Wind from ESE
Gusts 4.0 mph

Today
High -- | Low -- °F
--% Chance of Precip.
Yesterday
High -- | Low -- °F
Precip. -- in
Pressure 29.94 in
Visibility 7.0 miles
Clouds Few 1200 ft
Mostly Cloudy 4000 ft
Overcast 9000 ft
Dew Point 61 °F
Humidity 100%
Rainfall 0.00 in
Snow Depth Not available.
4:53 AM 8:27 PM
Waxing Crescent, 20% visible
SPECI KBGR 272326Z COR 20012KT 7SM -TSRA FEW012 BKN040CB OVC090 17/16 A2994 RMK AO2 LTG DSNT ALQDS RAB10 TSB25 OCNL LTGCG S TS S MOV N P0000 T01720156
Pressure 29.94 in
Visibility 7.0 miles
Clouds Few 1200 ft
Mostly Cloudy 4000 ft
Overcast 9000 ft
Dew Point 61 °F
Humidity 100%
Rainfall 0.00 in
Snow Depth Not available.
4:53 AM 8:27 PM
Waxing Crescent, 20% visible
SPECI KBGR 272326Z COR 20012KT 7SM -TSRA FEW012 BKN040CB OVC090 17/16 A2994 RMK AO2 LTG DSNT ALQDS RAB10 TSB25 OCNL LTGCG S TS S MOV N P0000 T01720156

Get Severe Weather Alerts

Thanks for signing up!

Be on the lookout for a verification email in your inbox.

You'll start receiving the daily forecast at 6 AM.

×

10-Day Weather Forecast

Almanac

Astronomy

Jun. 27, 2017 Rise Set
Actual Time
Civil Twilight
Nautical Twilight
Astronomical Twilight
Moon
Length of Visible Light
Length of Day
Tomorrow will be .
, % of the Moon is Illuminated

Today's Extremes

State Highs State Lows

Community

WunderPhotos

Category 6

Welcome to Category 6. This is the collective home for Weather Underground's featured writeups by Dr. Jeff Masters (right), Bob Henson (left), Chris Burt, and other regular contributors.

Nearby

Air Quality

  Air Quality AQ Index Pollutant
Not available.

Snow Depth

Station Depth Elevation

Earthquake Activity

City Distance Mag. Time & Date
Minimum magnitude displayed is 2.5.

Coastal Water Temperatures

Place Temperature

Stations

Nearby Weather Stations

Station Location Temp. Windchill Dew Point Humidity Wind Precip. Elev Updated Type
                   

Watches & Warnings

There are currently no watches in effect.